createdAt,value
2018-01-01T00:00:42.532Z,0
2018-01-01T00:01:51.362Z,0
2018-01-01T00:03:00.189Z,0
2018-01-01T00:04:09.119Z,0
2018-01-01T00:05:17.960Z,0
2018-01-01T00:06:26.778Z,0
2018-01-01T00:07:35.602Z,0
2018-01-01T00:08:44.433Z,0
2018-01-01T00:09:53.261Z,0
2018-01-01T00:11:02.091Z,0
2018-01-01T00:12:10.919Z,0
2018-01-01T00:13:20.019Z,0
2018-01-01T00:14:28.848Z,0
2018-01-01T00:15:37.677Z,0
2018-01-01T00:16:46.505Z,0
2018-01-01T00:17:55.333Z,0
2018-01-01T00:19:04.161Z,0
2018-01-01T00:20:12.997Z,0
2018-01-01T00:21:21.824Z,0
2018-01-01T00:22:30.652Z,0
2018-01-01T00:23:39.482Z,0
2018-01-01T00:24:48.361Z,0
2018-01-01T00:25:57.193Z,0
2018-01-01T00:27:06.024Z,0
2018-01-01T00:28:14.852Z,0
2018-01-01T00:29:23.680Z,0
2018-01-01T00:30:32.609Z,0
2018-01-01T00:31:41.438Z,0
2018-01-01T00:32:50.265Z,0
2018-01-01T00:33:59.095Z,0
2018-01-01T00:35:07.928Z,0
2018-01-01T00:36:17.053Z,0
2018-01-01T00:37:25.883Z,0
2018-01-01T00:38:34.710Z,0
2018-01-01T00:39:43.539Z,0
2018-01-01T00:40:52.658Z,0
2018-01-01T00:42:01.736Z,0
2018-01-01T00:43:10.565Z,0
2018-01-01T00:44:19.393Z,0
2018-01-01T00:45:28.222Z,0
2018-01-01T00:46:37.049Z,0
2018-01-01T00:47:45.882Z,0
2018-01-01T00:48:54.709Z,0
2018-01-01T00:50:03.814Z,0
2018-01-01T00:51:12.638Z,0
2018-01-01T00:52:21.468Z,0
2018-01-01T00:53:30.398Z,0
2018-01-01T00:54:39.228Z,0
2018-01-01T00:55:48.330Z,0
2018-01-01T00:56:57.158Z,0
2018-01-01T00:58:05.987Z,0
2018-01-01T00:59:14.865Z,0
2018-01-01T01:00:23.693Z,0
2018-01-01T01:01:32.528Z,0
2018-01-01T01:02:41.348Z,0
2018-01-01T01:03:50.178Z,0
2018-01-01T01:04:59.157Z,0
2018-01-01T01:06:07.985Z,0
2018-01-01T01:07:16.812Z,0
2018-01-01T01:08:25.642Z,0
2018-01-01T01:09:34.747Z,0
2018-01-01T01:10:43.678Z,0
2018-01-01T01:11:52.505Z,0
2018-01-01T01:13:01.334Z,0
2018-01-01T01:14:10.164Z,0
2018-01-01T01:15:19.271Z,0
2018-01-01T01:16:28.098Z,0
2018-01-01T01:17:36.925Z,0
2018-01-01T01:18:45.754Z,0
2018-01-01T01:19:54.583Z,0
2018-01-01T01:21:03.410Z,0
2018-01-01T01:22:12.239Z,0
2018-01-01T01:23:21.067Z,0
2018-01-01T01:24:29.893Z,0
2018-01-01T01:25:38.721Z,0
2018-01-01T01:26:47.548Z,0
2018-01-01T01:27:56.530Z,0
2018-01-01T01:29:05.358Z,0
2018-01-01T01:30:14.189Z,0
2018-01-01T01:31:23.016Z,0
2018-01-01T01:32:31.846Z,0
2018-01-01T01:33:40.674Z,0
2018-01-01T01:34:49.504Z,0
2018-01-01T01:35:58.331Z,0
2018-01-01T01:37:07.160Z,0
2018-01-01T01:38:15.990Z,0
2018-01-01T01:39:24.920Z,0
2018-01-01T01:40:33.747Z,0
2018-01-01T01:41:42.575Z,0
2018-01-01T01:42:51.406Z,0
2018-01-01T01:44:00.262Z,0
2018-01-01T01:45:09.240Z,0
2018-01-01T01:46:18.083Z,0
2018-01-01T01:47:26.913Z,0
2018-01-01T01:48:35.739Z,0
2018-01-01T01:49:44.571Z,0
2018-01-01T01:50:53.585Z,0
2018-01-01T01:52:02.379Z,0
2018-01-01T01:53:11.205Z,0
2018-01-01T01:54:20.033Z,0
2018-01-01T01:55:28.885Z,0
2018-01-01T01:56:37.790Z,0
2018-01-01T01:57:46.620Z,0
2018-01-01T01:58:55.451Z,0
2018-01-01T02:00:04.277Z,0
2018-01-01T02:01:13.105Z,0
2018-01-01T02:02:22.083Z,0
2018-01-01T02:03:30.912Z,0
2018-01-01T02:04:39.741Z,0
2018-01-01T02:05:48.570Z,0
2018-01-01T02:06:57.673Z,0
2018-01-01T02:08:06.650Z,0
2018-01-01T02:09:15.480Z,0
2018-01-01T02:10:24.307Z,0
2018-01-01T02:11:33.135Z,0
2018-01-01T02:12:41.963Z,0
2018-01-01T02:13:50.795Z,0
2018-01-01T02:14:59.626Z,0
2018-01-01T02:16:08.456Z,0
2018-01-01T02:17:17.285Z,0
2018-01-01T02:18:26.114Z,0
2018-01-01T02:19:35.241Z,0
2018-01-01T02:20:44.071Z,0
2018-01-01T02:21:52.899Z,0
2018-01-01T02:23:01.728Z,0
2018-01-01T02:24:10.554Z,0
2018-01-01T02:25:19.685Z,0
2018-01-01T02:26:28.513Z,0
2018-01-01T02:27:37.342Z,0
2018-01-01T02:28:46.173Z,0
2018-01-01T02:29:55.051Z,0
2018-01-01T02:31:03.879Z,0
2018-01-01T02:32:12.711Z,0
2018-01-01T02:33:21.543Z,0
2018-01-01T02:34:30.641Z,0
2018-01-01T02:35:39.469Z,0
2018-01-01T02:36:48.496Z,0
2018-01-01T02:37:57.322Z,0
2018-01-01T02:39:06.156Z,0
2018-01-01T02:40:14.986Z,0
2018-01-01T02:41:23.813Z,0
2018-01-01T02:42:32.650Z,0
2018-01-01T02:43:41.469Z,0
2018-01-01T02:44:50.297Z,0
2018-01-01T02:45:59.124Z,0
2018-01-01T02:47:07.954Z,0
2018-01-01T02:48:16.885Z,0
2018-01-01T02:49:25.713Z,0
2018-01-01T02:50:34.596Z,0
2018-01-01T02:51:43.420Z,0
2018-01-01T02:52:52.528Z,0
2018-01-01T02:54:01.356Z,0
2018-01-01T02:55:10.185Z,0
2018-01-01T02:56:19.014Z,0
2018-01-01T02:57:27.848Z,0
2018-01-01T02:58:36.678Z,0
2018-01-01T02:59:46.032Z,0
2018-01-01T03:00:54.909Z,0
2018-01-01T03:02:03.740Z,0
2018-01-01T03:03:12.568Z,0
2018-01-01T03:04:21.394Z,0
2018-01-01T03:05:30.373Z,0
2018-01-01T03:06:39.202Z,0
2018-01-01T03:07:48.034Z,0
2018-01-01T03:08:57.132Z,0
2018-01-01T03:10:05.959Z,0
2018-01-01T03:11:14.789Z,0
2018-01-01T03:12:23.618Z,0
2018-01-01T03:13:32.447Z,0
2018-01-01T03:14:41.278Z,0
2018-01-01T03:15:50.103Z,0
2018-01-01T03:16:59.306Z,0
2018-01-01T03:18:08.133Z,0
2018-01-01T03:19:17.287Z,0
2018-01-01T03:20:26.062Z,0
2018-01-01T03:21:34.892Z,0
2018-01-01T03:22:43.724Z,0
2018-01-01T03:23:52.550Z,0
2018-01-01T03:25:01.380Z,0
2018-01-01T03:26:10.210Z,0
2018-01-01T03:27:19.038Z,0
2018-01-01T03:28:28.117Z,0
2018-01-01T03:29:36.946Z,0
2018-01-01T03:30:45.779Z,0
2018-01-01T03:31:54.601Z,0
2018-01-01T03:33:03.430Z,0
2018-01-01T03:34:12.407Z,0
2018-01-01T03:35:21.236Z,0
2018-01-01T03:36:30.068Z,0
2018-01-01T03:37:38.894Z,0
2018-01-01T03:38:47.721Z,0
2018-01-01T03:39:56.848Z,0
2018-01-01T03:41:05.676Z,0
2018-01-01T03:42:14.504Z,0
2018-01-01T03:43:23.333Z,0
2018-01-01T03:44:32.159Z,0
2018-01-01T03:45:40.987Z,0
2018-01-01T03:46:49.815Z,0
2018-01-01T03:47:58.642Z,0
2018-01-01T03:49:07.471Z,0
2018-01-01T03:50:16.299Z,0
2018-01-01T03:51:25.278Z,0
2018-01-01T03:52:34.106Z,0
2018-01-01T03:53:42.934Z,0
2018-01-01T03:54:51.761Z,0
2018-01-01T03:56:00.862Z,0
2018-01-01T03:57:09.690Z,0
2018-01-01T03:58:18.519Z,0
2018-01-01T03:59:27.348Z,0
2018-01-01T04:00:36.177Z,0
2018-01-01T04:01:45.003Z,0
2018-01-01T04:02:53.830Z,0
2018-01-01T04:04:02.662Z,0
2018-01-01T04:05:11.488Z,0
2018-01-01T04:06:20.316Z,0
2018-01-01T04:07:29.145Z,0
2018-01-01T04:08:37.973Z,0
2018-01-01T04:09:46.802Z,0
2018-01-01T04:10:55.632Z,0
2018-01-01T04:12:04.733Z,0
2018-01-01T04:13:13.833Z,0
2018-01-01T04:14:22.811Z,0
2018-01-01T04:15:31.638Z,0
2018-01-01T04:16:40.744Z,0
2018-01-01T04:17:49.571Z,0
2018-01-01T04:18:58.401Z,0
2018-01-01T04:20:07.379Z,0
2018-01-01T04:21:16.206Z,0
2018-01-01T04:22:25.038Z,0
2018-01-01T04:23:33.864Z,0
2018-01-01T04:24:42.691Z,0
2018-01-01T04:25:51.518Z,0
2018-01-01T04:27:00.345Z,0
2018-01-01T04:28:09.173Z,0
2018-01-01T04:29:18.002Z,0
2018-01-01T04:30:26.837Z,0
2018-01-01T04:31:35.664Z,0
2018-01-01T04:32:44.490Z,0
2018-01-01T04:33:53.317Z,0
2018-01-01T04:35:02.145Z,0
2018-01-01T04:36:10.971Z,0
2018-01-01T04:37:20.099Z,0
2018-01-01T04:38:29.199Z,0
2018-01-01T04:39:38.027Z,0
2018-01-01T04:40:46.855Z,0
2018-01-01T04:41:55.683Z,0
2018-01-01T04:43:04.511Z,0
2018-01-01T04:44:13.340Z,0
2018-01-01T04:45:22.441Z,0
2018-01-01T04:46:31.269Z,0
2018-01-01T04:47:40.101Z,0
2018-01-01T04:48:49.079Z,0
2018-01-01T04:49:58.180Z,0
2018-01-01T04:51:07.009Z,0
2018-01-01T04:52:15.836Z,0
2018-01-01T04:53:24.671Z,0
2018-01-01T04:54:33.794Z,0
2018-01-01T04:55:42.620Z,0
2018-01-01T04:56:51.727Z,0
2018-01-01T04:58:00.556Z,0
2018-01-01T04:59:09.386Z,0
2018-01-01T05:00:18.211Z,0
2018-01-01T05:01:27.040Z,0
2018-01-01T05:02:35.919Z,0
2018-01-01T05:03:44.745Z,0
2018-01-01T05:04:53.572Z,0
2018-01-01T05:06:02.404Z,0
2018-01-01T05:07:11.232Z,0
2018-01-01T05:08:20.062Z,0
2018-01-01T05:09:28.888Z,0
2018-01-01T05:10:37.718Z,0
2018-01-01T05:11:46.546Z,0
2018-01-01T05:12:55.647Z,0
2018-01-01T05:14:04.477Z,0
2018-01-01T05:15:13.303Z,0
2018-01-01T05:16:22.135Z,0
2018-01-01T05:17:30.960Z,0
2018-01-01T05:18:40.065Z,0
2018-01-01T05:19:48.888Z,0
2018-01-01T05:20:57.715Z,0
2018-01-01T05:22:06.543Z,0
2018-01-01T05:23:15.472Z,0
2018-01-01T05:24:24.300Z,0
2018-01-01T05:25:33.128Z,0
2018-01-01T05:26:41.955Z,0
2018-01-01T05:27:50.784Z,0
2018-01-01T05:28:59.711Z,0
2018-01-01T05:30:08.538Z,0
2018-01-01T05:31:17.366Z,0
2018-01-01T05:32:26.197Z,0
2018-01-01T05:33:35.022Z,0
2018-01-01T05:34:44.002Z,0
2018-01-01T05:35:52.827Z,0
2018-01-01T05:37:01.655Z,0
2018-01-01T05:38:10.484Z,0
2018-01-01T05:39:19.316Z,0
2018-01-01T05:40:28.139Z,0
2018-01-01T05:41:36.966Z,0
2018-01-01T05:42:45.793Z,0
2018-01-01T05:43:54.621Z,0
2018-01-01T05:45:03.718Z,0
2018-01-01T05:46:12.797Z,0
2018-01-01T05:47:21.626Z,0
2018-01-01T05:48:30.452Z,0
2018-01-01T05:49:39.281Z,0
2018-01-01T05:50:48.107Z,0
2018-01-01T05:51:56.935Z,0
2018-01-01T05:53:05.762Z,0
2018-01-01T05:54:14.591Z,0
2018-01-01T05:55:23.424Z,0
2018-01-01T05:56:32.523Z,0
2018-01-01T05:57:41.349Z,0
2018-01-01T05:58:50.179Z,0
2018-01-01T05:59:59.006Z,0
2018-01-01T06:01:07.835Z,0
2018-01-01T06:02:16.662Z,0
2018-01-01T06:03:25.488Z,0
2018-01-01T06:04:34.593Z,0
2018-01-01T06:05:43.424Z,0
2018-01-01T06:06:52.246Z,0
2018-01-01T06:08:01.073Z,0
2018-01-01T06:09:09.952Z,0
2018-01-01T06:10:18.779Z,0
2018-01-01T06:11:27.605Z,0
2018-01-01T06:12:36.430Z,0
2018-01-01T06:13:45.257Z,0
2018-01-01T06:14:54.082Z,0
2018-01-01T06:16:02.912Z,0
2018-01-01T06:17:11.740Z,0
2018-01-01T06:18:20.566Z,0
2018-01-01T06:19:29.393Z,0
2018-01-01T06:20:38.545Z,0
2018-01-01T06:21:47.370Z,0
2018-01-01T06:22:56.195Z,0
2018-01-01T06:24:05.292Z,0
2018-01-01T06:25:14.120Z,0
2018-01-01T06:26:23.046Z,0
2018-01-01T06:27:31.875Z,0
2018-01-01T06:28:40.753Z,0
2018-01-01T06:29:49.580Z,0
2018-01-01T06:30:58.410Z,0
2018-01-01T06:32:07.237Z,0
2018-01-01T06:33:16.062Z,0
2018-01-01T06:34:24.896Z,0
2018-01-01T06:35:33.716Z,0
2018-01-01T06:36:42.544Z,0
2018-01-01T06:37:51.371Z,0
2018-01-01T06:39:00.199Z,0
2018-01-01T06:40:09.026Z,0
2018-01-01T06:41:17.853Z,0
2018-01-01T06:42:26.683Z,0
2018-01-01T06:43:35.660Z,0
2018-01-01T06:44:44.487Z,0
2018-01-01T06:45:53.414Z,0
2018-01-01T06:47:02.248Z,0
2018-01-01T06:48:11.071Z,0
2018-01-01T06:49:20.320Z,0
2018-01-01T06:50:29.145Z,0
2018-01-01T06:51:37.972Z,0
2018-01-01T06:52:46.799Z,0
2018-01-01T06:53:55.624Z,0
2018-01-01T06:55:04.451Z,0
2018-01-01T06:56:13.275Z,0
2018-01-01T06:57:22.101Z,0
2018-01-01T06:58:30.926Z,0
2018-01-01T06:59:39.751Z,0
2018-01-01T07:00:48.680Z,0
2018-01-01T07:01:57.507Z,0
2018-01-01T07:03:06.720Z,0
2018-01-01T07:04:15.548Z,0
2018-01-01T07:05:24.373Z,0
2018-01-01T07:06:33.249Z,0
2018-01-01T07:07:42.084Z,0
2018-01-01T07:08:51.187Z,0
2018-01-01T07:10:00.030Z,0
2018-01-01T07:11:09.141Z,0
2018-01-01T07:12:18.017Z,0
2018-01-01T07:13:26.888Z,0
2018-01-01T07:14:35.673Z,0
2018-01-01T07:15:44.496Z,0
2018-01-01T07:16:53.324Z,0
2018-01-01T07:18:02.352Z,0
2018-01-01T07:19:11.179Z,0
2018-01-01T07:20:20.007Z,0
2018-01-01T07:21:28.833Z,0
2018-01-01T07:22:37.660Z,0
2018-01-01T07:23:46.587Z,0
2018-01-01T07:24:55.414Z,0
2018-01-01T07:26:04.518Z,0
2018-01-01T07:27:13.347Z,0
2018-01-01T07:28:22.172Z,0
2018-01-01T07:29:31.275Z,5
2018-01-01T07:30:40.104Z,5
2018-01-01T07:31:49.198Z,5
2018-01-01T07:32:58.026Z,5
2018-01-01T07:34:06.852Z,5
2018-01-01T07:35:15.829Z,5
2018-01-01T07:36:24.656Z,5
2018-01-01T07:37:33.482Z,5
2018-01-01T07:38:42.327Z,10
2018-01-01T07:39:51.152Z,10
2018-01-01T07:41:00.279Z,10
2018-01-01T07:42:09.105Z,10
2018-01-01T07:43:18.205Z,10
2018-01-01T07:44:27.029Z,10
2018-01-01T07:45:35.854Z,15
2018-01-01T07:46:44.729Z,15
2018-01-01T07:47:53.557Z,15
2018-01-01T07:49:02.381Z,20
2018-01-01T07:50:11.208Z,25
2018-01-01T07:51:20.031Z,20
2018-01-01T07:52:29.160Z,25
2018-01-01T07:53:37.986Z,25
2018-01-01T07:54:46.820Z,25
2018-01-01T07:55:55.643Z,25
2018-01-01T07:57:04.470Z,25
2018-01-01T07:58:13.575Z,30
2018-01-01T07:59:22.676Z,30
2018-01-01T08:00:31.504Z,30
2018-01-01T08:01:40.333Z,30
2018-01-01T08:02:49.162Z,30
2018-01-01T08:03:58.593Z,35
2018-01-01T08:05:07.421Z,35
2018-01-01T08:06:16.251Z,35
2018-01-01T08:07:25.075Z,35
2018-01-01T08:08:33.904Z,40
2018-01-01T08:09:43.428Z,40
2018-01-01T08:10:52.255Z,40
2018-01-01T08:12:01.083Z,40
2018-01-01T08:13:09.907Z,40
2018-01-01T08:14:18.733Z,40
2018-01-01T08:15:27.710Z,45
2018-01-01T08:16:36.590Z,45
2018-01-01T08:17:45.419Z,45
2018-01-01T08:18:54.240Z,45
2018-01-01T08:20:03.070Z,50
2018-01-01T08:21:11.895Z,50
2018-01-01T08:22:20.721Z,50
2018-01-01T08:23:29.549Z,50
2018-01-01T08:24:38.375Z,55
2018-01-01T08:25:47.202Z,55
2018-01-01T08:26:56.201Z,55
2018-01-01T08:28:05.305Z,55
2018-01-01T08:29:14.401Z,60
2018-01-01T08:30:23.228Z,60
2018-01-01T08:31:32.059Z,65
2018-01-01T08:32:41.257Z,65
2018-01-01T08:33:50.086Z,65
2018-01-01T08:34:59.188Z,70
2018-01-01T08:36:08.014Z,70
2018-01-01T08:37:16.840Z,70
2018-01-01T08:38:25.820Z,70
2018-01-01T08:39:34.646Z,70
2018-01-01T08:40:43.473Z,75
2018-01-01T08:41:52.299Z,75
2018-01-01T08:43:01.125Z,75
2018-01-01T08:44:10.106Z,75
2018-01-01T08:45:18.937Z,75
2018-01-01T08:46:27.762Z,80
2018-01-01T08:47:36.589Z,80
2018-01-01T08:48:45.698Z,80
2018-01-01T08:49:54.675Z,80
2018-01-01T08:51:03.501Z,80
2018-01-01T08:52:12.327Z,85
2018-01-01T08:53:21.155Z,90
2018-01-01T08:54:29.982Z,90
2018-01-01T08:55:39.082Z,90
2018-01-01T08:56:47.906Z,100
2018-01-01T08:57:56.735Z,95
2018-01-01T08:59:05.563Z,90
2018-01-01T09:00:14.388Z,90
2018-01-01T09:01:23.223Z,90
2018-01-01T09:02:32.040Z,90
2018-01-01T09:03:40.867Z,95
2018-01-01T09:04:49.694Z,90
2018-01-01T09:05:58.524Z,90
2018-01-01T09:07:07.499Z,95
2018-01-01T09:08:16.326Z,95
2018-01-01T09:09:25.153Z,95
2018-01-01T09:10:34.256Z,95
2018-01-01T09:11:43.082Z,95
2018-01-01T09:12:51.961Z,95
2018-01-01T09:14:00.787Z,95
2018-01-01T09:15:09.614Z,100
2018-01-01T09:16:18.443Z,100
2018-01-01T09:17:27.269Z,100
2018-01-01T09:18:36.096Z,100
2018-01-01T09:19:44.926Z,100
2018-01-01T09:20:53.755Z,100
2018-01-01T09:22:02.581Z,100
2018-01-01T09:23:11.409Z,100
2018-01-01T09:24:20.389Z,100
2018-01-01T09:25:29.216Z,105
2018-01-01T09:26:38.043Z,105
2018-01-01T09:27:46.867Z,105
2018-01-01T09:28:55.695Z,105
2018-01-01T09:30:04.522Z,105
2018-01-01T09:31:13.346Z,105
2018-01-01T09:32:22.179Z,105
2018-01-01T09:33:31.278Z,110
2018-01-01T09:34:40.104Z,110
2018-01-01T09:35:49.308Z,110
2018-01-01T09:36:58.134Z,110
2018-01-01T09:38:06.967Z,110
2018-01-01T09:39:16.066Z,110
2018-01-01T09:40:24.894Z,110
2018-01-01T09:41:33.874Z,115
2018-01-01T09:42:42.702Z,115
2018-01-01T09:43:51.531Z,115
2018-01-01T09:45:00.361Z,115
2018-01-01T09:46:09.186Z,120
2018-01-01T09:47:18.015Z,120
2018-01-01T09:48:26.847Z,120
2018-01-01T09:49:35.674Z,125
2018-01-01T09:50:44.499Z,130
2018-01-01T09:51:53.328Z,135
2018-01-01T09:53:02.456Z,130
2018-01-01T09:54:11.287Z,135
2018-01-01T09:55:20.113Z,150
2018-01-01T09:56:28.943Z,150
2018-01-01T09:57:37.770Z,175
2018-01-01T09:58:46.747Z,185
2018-01-01T09:59:55.573Z,195
2018-01-01T10:01:04.691Z,215
2018-01-01T10:02:14.070Z,235
2018-01-01T10:03:22.898Z,235
2018-01-01T10:04:31.877Z,230
2018-01-01T10:05:40.707Z,235
2018-01-01T10:06:49.658Z,210
2018-01-01T10:07:58.495Z,205
2018-01-01T10:09:07.326Z,200
2018-01-01T10:10:16.301Z,215
2018-01-01T10:11:25.129Z,185
2018-01-01T10:12:33.958Z,195
2018-01-01T10:13:43.056Z,205
2018-01-01T10:14:51.886Z,185
2018-01-01T10:16:01.038Z,190
2018-01-01T10:17:09.866Z,190
2018-01-01T10:18:18.697Z,200
2018-01-01T10:19:27.801Z,185
2018-01-01T10:20:37.190Z,210
2018-01-01T10:21:46.021Z,160
2018-01-01T10:22:54.854Z,225
2018-01-01T10:24:03.681Z,205
2018-01-01T10:25:12.515Z,205
2018-01-01T10:26:21.346Z,190
2018-01-01T10:27:30.454Z,185
2018-01-01T10:28:39.285Z,180
2018-01-01T10:29:48.114Z,205
2018-01-01T10:30:56.941Z,190
2018-01-01T10:32:05.771Z,160
2018-01-01T10:33:14.851Z,170
2018-01-01T10:34:23.681Z,200
2018-01-01T10:35:32.509Z,165
2018-01-01T10:36:41.611Z,200
2018-01-01T10:37:50.441Z,235
2018-01-01T10:38:59.270Z,175
2018-01-01T10:40:08.099Z,190
2018-01-01T10:41:16.928Z,195
2018-01-01T10:42:25.758Z,190
2018-01-01T10:43:34.589Z,190
2018-01-01T10:44:43.566Z,205
2018-01-01T10:45:52.396Z,200
2018-01-01T10:47:01.224Z,200
2018-01-01T10:48:10.053Z,195
2018-01-01T10:49:18.883Z,190
2018-01-01T10:50:27.763Z,215
2018-01-01T10:51:36.594Z,240
2018-01-01T10:52:45.421Z,200
2018-01-01T10:53:54.525Z,200
2018-01-01T10:55:03.625Z,200
2018-01-01T10:56:12.762Z,210
2018-01-01T10:57:21.593Z,225
2018-01-01T10:58:30.418Z,240
2018-01-01T10:59:39.245Z,245
2018-01-01T11:00:48.073Z,230
2018-01-01T11:01:56.901Z,240
2018-01-01T11:03:05.729Z,215
2018-01-01T11:04:14.561Z,235
2018-01-01T11:05:23.663Z,180
2018-01-01T11:06:32.496Z,155
2018-01-01T11:07:41.328Z,165
2018-01-01T11:08:50.156Z,210
2018-01-01T11:09:59.265Z,215
2018-01-01T11:11:08.095Z,215
2018-01-01T11:12:17.077Z,195
2018-01-01T11:13:25.907Z,230
2018-01-01T11:14:34.735Z,215
2018-01-01T11:15:43.564Z,250
2018-01-01T11:16:52.394Z,240
2018-01-01T11:18:01.221Z,205
2018-01-01T11:19:10.051Z,200
2018-01-01T11:20:18.879Z,170
2018-01-01T11:21:27.708Z,180
2018-01-01T11:22:36.537Z,200
2018-01-01T11:23:45.364Z,195
2018-01-01T11:24:54.194Z,195
2018-01-01T11:26:03.024Z,195
2018-01-01T11:27:11.852Z,220
2018-01-01T11:28:20.678Z,215
2018-01-01T11:29:29.508Z,200
2018-01-01T11:30:38.334Z,210
2018-01-01T11:31:47.163Z,195
2018-01-01T11:32:55.992Z,220
2018-01-01T11:34:04.822Z,200
2018-01-01T11:35:13.647Z,155
2018-01-01T11:36:22.481Z,125
2018-01-01T11:37:31.591Z,135
2018-01-01T11:38:40.421Z,160
2018-01-01T11:39:49.249Z,120
2018-01-01T11:40:58.078Z,105
2018-01-01T11:42:07.187Z,90
2018-01-01T11:43:16.017Z,90
2018-01-01T11:44:25.256Z,75
2018-01-01T11:45:34.360Z,95
2018-01-01T11:46:43.192Z,125
2018-01-01T11:47:52.021Z,155
2018-01-01T11:49:01.121Z,170
2018-01-01T11:50:10.249Z,155
2018-01-01T11:51:19.090Z,145
2018-01-01T11:52:27.930Z,160
2018-01-01T11:53:36.760Z,190
2018-01-01T11:54:45.588Z,215
2018-01-01T11:55:54.568Z,195
2018-01-01T11:57:03.398Z,180
2018-01-01T11:58:12.232Z,210
2018-01-01T11:59:21.608Z,195
2018-01-01T12:00:30.460Z,195
2018-01-01T12:01:39.340Z,170
2018-01-01T12:02:48.170Z,210
2018-01-01T12:03:56.999Z,210
2018-01-01T12:05:05.829Z,190
2018-01-01T12:06:14.665Z,205
2018-01-01T12:07:23.644Z,185
2018-01-01T12:08:32.472Z,180
2018-01-01T12:09:41.575Z,175
2018-01-01T12:10:50.410Z,145
2018-01-01T12:11:59.509Z,165
2018-01-01T12:13:08.638Z,165
2018-01-01T12:14:17.470Z,165
2018-01-01T12:15:26.297Z,195
2018-01-01T12:16:35.127Z,265
2018-01-01T12:17:43.962Z,210
2018-01-01T12:18:52.788Z,165
2018-01-01T12:20:01.617Z,125
2018-01-01T12:21:10.449Z,155
2018-01-01T12:22:19.279Z,160
2018-01-01T12:23:28.106Z,155
2018-01-01T12:24:36.937Z,200
2018-01-01T12:25:45.767Z,165
2018-01-01T12:26:54.596Z,145
2018-01-01T12:28:03.429Z,185
2018-01-01T12:29:12.282Z,205
2018-01-01T12:30:21.739Z,180
2018-01-01T12:31:30.568Z,150
2018-01-01T12:32:39.398Z,145
2018-01-01T12:33:48.506Z,165
2018-01-01T12:34:57.335Z,170
2018-01-01T12:36:06.596Z,155
2018-01-01T12:37:15.461Z,140
2018-01-01T12:38:24.291Z,135
2018-01-01T12:39:33.122Z,125
2018-01-01T12:40:41.952Z,120
2018-01-01T12:41:50.881Z,135
2018-01-01T12:42:59.713Z,155
2018-01-01T12:44:08.814Z,165
2018-01-01T12:45:17.642Z,160
2018-01-01T12:46:26.469Z,155
2018-01-01T12:47:35.298Z,140
2018-01-01T12:48:44.128Z,130
2018-01-01T12:49:52.955Z,155
2018-01-01T12:51:01.786Z,170
2018-01-01T12:52:10.613Z,190
2018-01-01T12:53:19.593Z,170
2018-01-01T12:54:28.696Z,185
2018-01-01T12:55:37.534Z,175
2018-01-01T12:56:46.637Z,165
2018-01-01T12:57:55.461Z,170
2018-01-01T12:59:04.288Z,155
2018-01-01T13:00:13.165Z,150
2018-01-01T13:01:21.948Z,155
2018-01-01T13:02:31.060Z,170
2018-01-01T13:03:39.889Z,175
2018-01-01T13:04:48.770Z,155
2018-01-01T13:05:57.601Z,195
2018-01-01T13:07:06.429Z,215
2018-01-01T13:08:15.532Z,165
2018-01-01T13:09:24.358Z,140
2018-01-01T13:10:33.242Z,155
2018-01-01T13:11:42.071Z,210
2018-01-01T13:12:50.896Z,280
2018-01-01T13:13:59.728Z,275
2018-01-01T13:15:08.558Z,270
2018-01-01T13:16:17.498Z,245
2018-01-01T13:17:26.328Z,175
2018-01-01T13:18:35.158Z,205
2018-01-01T13:19:43.989Z,240
2018-01-01T13:20:52.816Z,210
2018-01-01T13:22:01.647Z,180
2018-01-01T13:23:10.476Z,165
2018-01-01T13:24:19.583Z,140
2018-01-01T13:25:28.412Z,135
2018-01-01T13:26:37.242Z,135
2018-01-01T13:27:46.371Z,155
2018-01-01T13:28:55.200Z,165
2018-01-01T13:30:04.029Z,180
2018-01-01T13:31:12.856Z,190
2018-01-01T13:32:21.691Z,185
2018-01-01T13:33:30.814Z,165
2018-01-01T13:34:39.643Z,170
2018-01-01T13:35:48.483Z,180
2018-01-01T13:36:57.586Z,200
2018-01-01T13:38:06.419Z,220
2018-01-01T13:39:15.299Z,225
2018-01-01T13:40:24.431Z,200
2018-01-01T13:41:33.261Z,175
2018-01-01T13:42:42.095Z,160
2018-01-01T13:43:51.273Z,155
2018-01-01T13:45:00.252Z,165
2018-01-01T13:46:09.083Z,165
2018-01-01T13:47:17.912Z,155
2018-01-01T13:48:26.739Z,155
2018-01-01T13:49:35.570Z,155
2018-01-01T13:50:44.672Z,155
2018-01-01T13:51:53.553Z,155
2018-01-01T13:53:02.334Z,155
2018-01-01T13:54:11.384Z,155
2018-01-01T13:55:20.249Z,165
2018-01-01T13:56:29.230Z,160
2018-01-01T13:57:38.060Z,160
2018-01-01T13:58:46.893Z,165
2018-01-01T13:59:55.720Z,160
2018-01-01T14:01:04.837Z,150
2018-01-01T14:02:13.668Z,135
2018-01-01T14:03:22.497Z,120
2018-01-01T14:04:31.325Z,120
2018-01-01T14:05:40.153Z,110
2018-01-01T14:06:48.987Z,95
2018-01-01T14:07:58.118Z,75
2018-01-01T14:09:06.942Z,70
2018-01-01T14:10:15.771Z,65
2018-01-01T14:11:24.600Z,70
2018-01-01T14:12:33.430Z,100
2018-01-01T14:13:42.258Z,165
2018-01-01T14:14:51.087Z,135
2018-01-01T14:15:59.916Z,100
2018-01-01T14:17:08.744Z,190
2018-01-01T14:18:17.576Z,180
2018-01-01T14:19:26.641Z,110
2018-01-01T14:20:35.395Z,140
2018-01-01T14:21:44.223Z,120
2018-01-01T14:22:53.051Z,115
2018-01-01T14:24:02.470Z,115
2018-01-01T14:25:11.396Z,110
2018-01-01T14:26:20.226Z,100
2018-01-01T14:27:29.057Z,95
2018-01-01T14:28:37.886Z,95
2018-01-01T14:29:46.716Z,95
2018-01-01T14:30:55.880Z,90
2018-01-01T14:32:04.710Z,85
2018-01-01T14:33:13.543Z,85
2018-01-01T14:34:22.369Z,85
2018-01-01T14:35:31.201Z,80
2018-01-01T14:36:40.131Z,80
2018-01-01T14:37:48.959Z,80
2018-01-01T14:38:58.068Z,80
2018-01-01T14:40:06.906Z,75
2018-01-01T14:41:15.735Z,75
2018-01-01T14:42:24.715Z,75
2018-01-01T14:43:33.546Z,70
2018-01-01T14:44:42.377Z,70
2018-01-01T14:45:51.209Z,65
2018-01-01T14:47:00.038Z,60
2018-01-01T14:48:08.967Z,60
2018-01-01T14:49:17.812Z,55
2018-01-01T14:50:26.643Z,55
2018-01-01T14:51:35.475Z,50
2018-01-01T14:52:44.310Z,50
2018-01-01T14:53:53.458Z,50
2018-01-01T14:55:02.337Z,45
2018-01-01T14:56:11.118Z,45
2018-01-01T14:57:19.947Z,45
2018-01-01T14:58:29.051Z,40
2018-01-01T14:59:38.080Z,40
2018-01-01T15:00:46.930Z,40
2018-01-01T15:01:55.758Z,35
2018-01-01T15:03:04.585Z,35
2018-01-01T15:04:13.414Z,30
2018-01-01T15:05:22.290Z,30
2018-01-01T15:06:31.117Z,25
2018-01-01T15:07:39.976Z,25
2018-01-01T15:08:48.771Z,25
2018-01-01T15:09:57.599Z,20
2018-01-01T15:11:06.479Z,20
2018-01-01T15:12:15.304Z,20
2018-01-01T15:13:24.134Z,20
2018-01-01T15:14:32.968Z,20
2018-01-01T15:15:42.063Z,15
2018-01-01T15:16:50.891Z,15
2018-01-01T15:17:59.720Z,15
2018-01-01T15:19:08.548Z,15
2018-01-01T15:20:17.378Z,10
2018-01-01T15:21:26.207Z,10
2018-01-01T15:22:35.190Z,10
2018-01-01T15:23:44.016Z,10
2018-01-01T15:24:52.844Z,5
2018-01-01T15:26:01.674Z,5
2018-01-01T15:27:10.503Z,5
2018-01-01T15:28:19.429Z,5
2018-01-01T15:29:28.256Z,5
2018-01-01T15:30:37.084Z,5
2018-01-01T15:31:45.910Z,5
2018-01-01T15:32:54.738Z,0
2018-01-01T15:34:03.564Z,0
2018-01-01T15:35:12.394Z,0
2018-01-01T15:36:21.223Z,0
2018-01-01T15:37:30.050Z,0
2018-01-01T15:38:38.878Z,0
2018-01-01T15:39:47.805Z,0
2018-01-01T15:40:56.633Z,0
2018-01-01T15:42:05.461Z,0
2018-01-01T15:43:14.296Z,0
2018-01-01T15:44:23.138Z,0
2018-01-01T15:45:31.977Z,0
2018-01-01T15:46:40.815Z,0
2018-01-01T15:47:49.929Z,0
2018-01-01T15:48:58.767Z,0
2018-01-01T15:50:07.612Z,0
2018-01-01T15:51:16.450Z,0
2018-01-01T15:52:25.278Z,0
2018-01-01T15:53:34.105Z,0
2018-01-01T15:54:43.030Z,0
2018-01-01T15:55:52.347Z,0
2018-01-01T15:57:01.801Z,0
2018-01-01T15:58:10.779Z,0
2018-01-01T15:59:19.812Z,0
2018-01-01T16:00:29.164Z,0
2018-01-01T16:01:38.547Z,0
2018-01-01T16:02:47.564Z,0
2018-01-01T16:03:56.744Z,0
2018-01-01T16:05:05.857Z,0
2018-01-01T16:06:14.986Z,0
2018-01-01T16:07:24.332Z,0
2018-01-01T16:08:33.890Z,0
2018-01-01T16:09:42.816Z,0
2018-01-01T16:10:51.666Z,0
2018-01-01T16:12:01.207Z,0
2018-01-01T16:13:10.130Z,0
2018-01-01T16:14:19.089Z,0
2018-01-01T16:15:28.039Z,0
2018-01-01T16:16:37.263Z,0
2018-01-01T16:17:46.185Z,0
2018-01-01T16:18:55.426Z,0
2018-01-01T16:20:04.790Z,0
2018-01-01T16:21:13.917Z,0
2018-01-01T16:22:23.034Z,0
2018-01-01T16:23:31.986Z,0
2018-01-01T16:24:41.094Z,0
2018-01-01T16:25:50.201Z,0
2018-01-01T16:26:59.171Z,0
2018-01-01T16:28:08.360Z,0
2018-01-01T16:29:17.599Z,0
2018-01-01T16:30:26.545Z,0